Time;durP1;ratioP1;P1;durP2;ratioP2;P2;SDS_P1;SDS_P2;PMS_P1;PMS_P2;Temp;Humidity;BMP_temperature;BMP_pressure;BME280_temperature;BME280_humidity;BME280_pressure;Samples;Min_cycle;Max_cycle;Signal;HPM_P1;HPM_P2
2023/01/26 00:01:30;;;;;;;28.60;12.30;;;;;;;;;;4830185;29;20049;-88
2023/01/26 00:03:56;;;;;;;24.85;13.73;;;;;;;;;;4815870;29;20491;-88
2023/01/26 00:06:23;;;;;;;27.42;14.18;;;;;;;;;;4815204;29;20049;-88
2023/01/26 00:08:50;;;;;;;30.02;14.27;;;;;;;;;;4830004;29;20049;-89
2023/01/26 00:11:17;;;;;;;27.75;12.90;;;;;;;;;;4830602;29;20070;-87
2023/01/26 00:13:43;;;;;;;28.63;12.95;;;;;;;;;;4830078;29;20049;-88
2023/01/26 00:16:11;;;;;;;29.35;14.27;;;;;;;;;;4830102;29;20137;-89
2023/01/26 00:18:37;;;;;;;31.50;13.50;;;;;;;;;;4830048;29;20061;-91
2023/01/26 00:21:04;;;;;;;33.80;16.45;;;;;;;;;;4830358;29;20101;-91
2023/01/26 00:23:31;;;;;;;31.55;14.38;;;;;;;;;;4830105;29;20060;-88
2023/01/26 00:25:57;;;;;;;27.30;12.90;;;;;;;;;;4830041;29;20137;-87
2023/01/26 00:28:24;;;;;;;33.10;14.57;;;;;;;;;;4845300;29;20049;-88
2023/01/26 00:30:50;;;;;;;32.03;13.48;;;;;;;;;;4830248;29;20122;-87
2023/01/26 00:33:16;;;;;;;25.40;12.60;;;;;;;;;;4829955;29;20049;-88
2023/01/26 00:35:45;;;;;;;24.60;12.20;;;;;;;;;;4845167;29;20053;-88
2023/01/26 00:38:12;;;;;;;30.02;13.55;;;;;;;;;;4829856;29;20049;-88
2023/01/26 00:40:38;;;;;;;24.55;11.32;;;;;;;;;;4830098;29;20108;-88
2023/01/26 00:43:04;;;;;;;32.47;14.35;;;;;;;;;;4844911;29;20138;-90
2023/01/26 00:45:30;;;;;;;25.38;14.52;;;;;;;;;;4829858;29;20427;-88
2023/01/26 00:47:57;;;;;;;26.63;12.02;;;;;;;;;;4845085;29;20508;-88
2023/01/26 00:50:23;;;;;;;33.00;13.45;;;;;;;;;;4829642;29;20044;-88
2023/01/26 00:52:49;;;;;;;32.95;14.60;;;;;;;;;;4829860;29;20054;-89
2023/01/26 00:55:15;;;;;;;31.38;14.77;;;;;;;;;;4829783;29;20513;-88
2023/01/26 00:57:41;;;;;;;32.25;13.38;;;;;;;;;;4844606;29;20523;-89
2023/01/26 01:00:09;;;;;;;25.85;12.23;;;;;;;;;;4814686;29;20517;-89
2023/01/26 01:02:35;;;;;;;31.65;15.75;;;;;;;;;;4844702;29;20077;-90
2023/01/26 01:05:01;;;;;;;28.10;13.55;;;;;;;;;;4829669;29;20049;-90
2023/01/26 01:07:27;;;;;;;30.42;14.57;;;;;;;;;;4829493;29;20042;-88
2023/01/26 01:09:53;;;;;;;33.47;13.93;;;;;;;;;;4829193;29;20105;-88
2023/01/26 01:12:19;;;;;;;29.02;13.20;;;;;;;;;;4829291;29;20102;-87
2023/01/26 01:14:45;;;;;;;28.58;13.23;;;;;;;;;;4814140;29;20052;-87
2023/01/26 01:17:11;;;;;;;27.98;13.30;;;;;;;;;;4829467;29;20049;-88
2023/01/26 01:19:37;;;;;;;25.13;12.60;;;;;;;;;;4830228;29;20053;-88
2023/01/26 01:22:05;;;;;;;32.15;13.48;;;;;;;;;;4829272;29;20134;-87
2023/01/26 01:24:33;;;;;;;29.98;13.48;;;;;;;;;;4814484;29;20106;-88
2023/01/26 01:26:59;;;;;;;25.08;13.25;;;;;;;;;;4846829;29;20054;-88
2023/01/26 01:29:25;;;;;;;30.55;14.40;;;;;;;;;;4832954;29;20060;-88
2023/01/26 01:31:51;;;;;;;27.50;13.52;;;;;;;;;;4833348;29;20056;-91
2023/01/26 01:34:17;;;;;;;33.60;14.57;;;;;;;;;;4832927;29;20049;-91
2023/01/26 01:36:43;;;;;;;22.88;12.20;;;;;;;;;;4818175;29;20094;-90
2023/01/26 01:39:09;;;;;;;28.27;15.10;;;;;;;;;;4817680;29;20415;-88
2023/01/26 01:41:35;;;;;;;31.10;13.57;;;;;;;;;;4833142;29;20078;-87
2023/01/26 01:44:15;;;;;;;32.40;14.27;;;;;;;;;;4818105;29;20114;-89
2023/01/26 01:46:56;;;;;;;26.08;11.68;;;;;;;;;;4832710;29;20507;-88
2023/01/26 01:49:26;;;;;;;34.00;13.38;;;;;;;;;;4832545;29;20049;-88
2023/01/26 01:51:57;;;;;;;30.52;12.93;;;;;;;;;;4847844;29;20055;-88
2023/01/26 01:54:28;;;;;;;29.30;13.65;;;;;;;;;;4832222;29;20045;-87
2023/01/26 01:56:56;;;;;;;28.95;12.60;;;;;;;;;;4828768;29;20058;-89
2023/01/26 01:59:22;;;;;;;30.20;12.48;;;;;;;;;;4814520;29;20054;-90
2023/01/26 02:01:50;;;;;;;33.22;14.00;;;;;;;;;;4829820;29;20054;-89
2023/01/26 02:04:17;;;;;;;26.48;12.77;;;;;;;;;;4814334;29;20054;-89
2023/01/26 02:06:47;;;;;;;32.33;12.73;;;;;;;;;;4814306;29;20046;-89
2023/01/26 02:10:17;;;;;;;28.33;12.35;;;;;;;;;;4829207;29;20041;-88
2023/01/26 02:12:01;;;;;;;30.50;13.32;;;;;;;;;;4816841;29;20068;-88
2023/01/26 02:14:28;;;;;;;27.80;13.20;;;;;;;;;;4814056;29;20045;-89
2023/01/26 02:16:54;;;;;;;25.08;12.75;;;;;;;;;;4814213;29;20133;-90
2023/01/26 02:19:36;;;;;;;30.73;14.18;;;;;;;;;;4814016;29;20079;-88
2023/01/26 02:22:06;;;;;;;30.50;13.93;;;;;;;;;;4829229;29;20081;-88
2023/01/26 02:24:34;;;;;;;33.35;15.18;;;;;;;;;;4814389;29;20073;-88
2023/01/26 02:27:00;;;;;;;38.40;15.02;;;;;;;;;;4814070;29;20042;-90
2023/01/26 02:29:26;;;;;;;35.20;15.05;;;;;;;;;;4799145;29;20166;-90
2023/01/26 02:31:53;;;;;;;31.85;13.10;;;;;;;;;;4798977;29;20087;-91
2023/01/26 02:34:20;;;;;;;36.88;14.65;;;;;;;;;;4813991;29;20050;-88
2023/01/26 02:36:56;;;;;;;30.23;13.95;;;;;;;;;;4814174;29;20049;-90
2023/01/26 02:39:43;;;;;;;35.63;13.93;;;;;;;;;;4829328;29;20050;-89
2023/01/26 02:44:54;;;;;;;26.60;13.25;;;;;;;;;;4828954;29;20050;-89
2023/01/26 02:47:20;;;;;;;34.95;16.70;;;;;;;;;;4814082;29;20054;-90
2023/01/26 02:49:46;;;;;;;27.80;13.57;;;;;;;;;;4813816;29;20456;-88
2023/01/26 02:52:13;;;;;;;32.30;14.55;;;;;;;;;;4798684;29;20054;-89
2023/01/26 02:57:25;;;;;;;35.38;14.95;;;;;;;;;;4830018;29;20068;-87
2023/01/26 02:59:51;;;;;;;34.28;14.95;;;;;;;;;;4813293;29;20078;-87
2023/01/26 03:02:17;;;;;;;30.25;15.30;;;;;;;;;;4813129;29;20037;-87
2023/01/26 03:04:43;;;;;;;32.60;15.07;;;;;;;;;;4812830;29;20507;-87
2023/01/26 03:07:09;;;;;;;36.92;14.75;;;;;;;;;;4828054;29;20812;-87
2023/01/26 03:09:35;;;;;;;37.35;15.93;;;;;;;;;;4827874;29;20058;-87
2023/01/26 03:12:01;;;;;;;37.55;16.05;;;;;;;;;;4827970;29;20565;-88
2023/01/26 03:14:27;;;;;;;40.13;16.42;;;;;;;;;;4828391;29;20143;-89
2023/01/26 03:16:54;;;;;;;34.40;15.40;;;;;;;;;;4828090;29;20456;-90
2023/01/26 03:27:40;;;;;;;40.90;16.63;;;;;;;;;;4827679;29;20106;-87
2023/01/26 03:30:06;;;;;;;31.77;14.18;;;;;;;;;;4812443;29;20407;-87
2023/01/26 03:32:32;;;;;;;39.60;17.60;;;;;;;;;;4812450;29;20102;-89
2023/01/26 03:34:58;;;;;;;33.97;16.20;;;;;;;;;;4827503;29;20045;-87
2023/01/26 03:37:24;;;;;;;43.95;16.13;;;;;;;;;;4827523;29;20046;-88
2023/01/26 03:56:26;;;;;;;37.20;16.73;;;;;;;;;;4828418;29;20050;-87
2023/01/26 03:58:55;;;;;;;37.60;15.32;;;;;;;;;;4826835;29;20486;-86
2023/01/26 04:01:26;;;;;;;34.72;15.75;;;;;;;;;;4827084;29;20050;-87
2023/01/26 04:09:24;;;;;;;42.70;17.10;;;;;;;;;;4827293;29;20060;-89
2023/01/26 04:11:50;;;;;;;46.53;17.58;;;;;;;;;;4812527;29;20077;-87
2023/01/26 04:22:42;;;;;;;33.63;16.58;;;;;;;;;;4826837;29;20057;-88
2023/01/26 04:25:09;;;;;;;41.80;15.95;;;;;;;;;;4811743;29;20050;-87
2023/01/26 04:27:35;;;;;;;37.03;16.15;;;;;;;;;;4811866;29;20106;-87
2023/01/26 04:30:02;;;;;;;42.38;16.30;;;;;;;;;;4826907;29;20066;-87
2023/01/26 04:32:28;;;;;;;45.92;16.38;;;;;;;;;;4811680;29;20075;-88
2023/01/26 04:34:54;;;;;;;38.50;17.23;;;;;;;;;;4796833;29;20065;-88
2023/01/26 04:37:21;;;;;;;38.80;16.42;;;;;;;;;;4842934;29;20093;-87
2023/01/26 04:39:47;;;;;;;41.78;17.30;;;;;;;;;;4811794;29;20113;-88
2023/01/26 04:42:13;;;;;;;39.55;16.42;;;;;;;;;;4796594;29;20099;-88
2023/01/26 04:44:39;;;;;;;39.42;16.85;;;;;;;;;;4797154;29;20058;-88
2023/01/26 04:47:05;;;;;;;39.05;17.65;;;;;;;;;;4826484;29;20133;-88
2023/01/26 04:49:31;;;;;;;38.55;17.38;;;;;;;;;;4811580;29;20045;-87
2023/01/26 04:51:57;;;;;;;40.47;17.70;;;;;;;;;;4811003;29;20045;-88
2023/01/26 04:54:23;;;;;;;45.45;18.00;;;;;;;;;;4811112;29;20050;-89
2023/01/26 04:56:50;;;;;;;48.97;18.60;;;;;;;;;;4798755;29;20217;-88
2023/01/26 04:59:17;;;;;;;40.90;16.95;;;;;;;;;;4829798;29;20097;-88
2023/01/26 05:01:43;;;;;;;39.35;16.00;;;;;;;;;;4814343;29;20101;-87
2023/01/26 05:04:10;;;;;;;41.83;16.45;;;;;;;;;;4829599;29;20049;-88
2023/01/26 05:06:37;;;;;;;56.08;19.05;;;;;;;;;;4829620;29;20048;-90
2023/01/26 05:09:03;;;;;;;45.63;18.02;;;;;;;;;;4844608;29;20045;-90
2023/01/26 05:11:29;;;;;;;48.28;17.27;;;;;;;;;;4814596;29;20053;-87
2023/01/26 05:13:55;;;;;;;38.67;16.33;;;;;;;;;;4814994;29;20074;-88
2023/01/26 05:16:21;;;;;;;40.60;17.98;;;;;;;;;;4844389;29;20045;-87
2023/01/26 05:18:48;;;;;;;40.78;16.90;;;;;;;;;;4829254;29;20527;-87
2023/01/26 05:21:14;;;;;;;48.70;15.70;;;;;;;;;;4829137;29;20140;-86
2023/01/26 05:23:40;;;;;;;40.00;16.40;;;;;;;;;;4813986;29;20050;-87
2023/01/26 05:26:06;;;;;;;42.92;16.95;;;;;;;;;;4844864;29;20050;-88
2023/01/26 05:28:33;;;;;;;46.08;16.30;;;;;;;;;;4844927;29;20095;-90
2023/01/26 05:30:59;;;;;;;38.45;14.70;;;;;;;;;;4829644;29;20046;-91
2023/01/26 05:33:25;;;;;;;44.70;15.82;;;;;;;;;;4814576;29;20057;-89
2023/01/26 05:35:52;;;;;;;48.38;15.68;;;;;;;;;;4813896;29;20069;-91
2023/01/26 05:38:18;;;;;;;51.60;14.93;;;;;;;;;;4844913;29;20084;-89
2023/01/26 05:40:44;;;;;;;40.85;12.18;;;;;;;;;;4813915;29;20514;-87
2023/01/26 05:43:11;;;;;;;50.33;14.43;;;;;;;;;;4814354;29;20050;-87
2023/01/26 05:45:37;;;;;;;42.38;12.70;;;;;;;;;;4814167;29;20073;-87
2023/01/26 05:48:04;;;;;;;41.92;12.20;;;;;;;;;;4828834;29;20049;-87
2023/01/26 05:50:30;;;;;;;44.00;12.68;;;;;;;;;;4829007;29;20062;-88
2023/01/26 05:52:56;;;;;;;38.03;10.68;;;;;;;;;;4829758;29;20140;-88
2023/01/26 05:55:22;;;;;;;42.70;9.70;;;;;;;;;;4828700;29;20050;-88
2023/01/26 05:57:48;;;;;;;39.53;8.57;;;;;;;;;;4813921;29;20404;-87
2023/01/26 06:00:15;;;;;;;38.28;9.32;;;;;;;;;;4829826;29;20088;-88
2023/01/26 06:02:41;;;;;;;43.83;9.40;;;;;;;;;;4813612;29;20489;-88
2023/01/26 06:05:09;;;;;;;46.67;8.90;;;;;;;;;;4813933;29;20081;-88
2023/01/26 06:07:36;;;;;;;36.05;8.23;;;;;;;;;;4813982;29;20050;-88
2023/01/26 06:10:02;;;;;;;40.28;9.38;;;;;;;;;;4828814;29;20045;-88
2023/01/26 06:12:34;;;;;;;36.90;8.48;;;;;;;;;;4829968;29;20041;-87
2023/01/26 06:15:00;;;;;;;36.83;8.43;;;;;;;;;;4847454;29;20045;-87
2023/01/26 06:17:26;;;;;;;43.15;7.97;;;;;;;;;;4816921;29;20049;-88
2023/01/26 06:19:52;;;;;;;45.13;9.57;;;;;;;;;;4831710;29;20081;-87
2023/01/26 06:22:19;;;;;;;46.30;8.60;;;;;;;;;;4816728;29;20053;-87
2023/01/26 06:24:45;;;;;;;39.72;5.80;;;;;;;;;;4847062;29;20045;-87
2023/01/26 06:27:12;;;;;;;45.45;7.68;;;;;;;;;;4831660;29;20499;-88
2023/01/26 06:29:38;;;;;;;28.58;5.65;;;;;;;;;;4847073;29;20097;-87
2023/01/26 06:32:05;;;;;;;41.40;6.60;;;;;;;;;;4846927;29;20141;-88
2023/01/26 06:34:32;;;;;;;34.17;6.75;;;;;;;;;;4816914;29;20436;-88
2023/01/26 06:36:58;;;;;;;27.13;6.05;;;;;;;;;;4832139;29;20065;-87
2023/01/26 06:39:24;;;;;;;37.90;6.15;;;;;;;;;;4831611;29;20061;-88
2023/01/26 06:41:50;;;;;;;26.90;5.47;;;;;;;;;;4831397;29;20045;-87
2023/01/26 06:44:16;;;;;;;29.95;6.93;;;;;;;;;;4847213;29;20451;-88
2023/01/26 06:46:42;;;;;;;39.38;6.80;;;;;;;;;;4831604;29;20399;-87
2023/01/26 06:49:09;;;;;;;33.63;6.70;;;;;;;;;;4817613;29;20522;-88
2023/01/26 06:51:38;;;;;;;33.88;6.88;;;;;;;;;;4833807;29;20057;-88
2023/01/26 06:54:04;;;;;;;26.88;5.75;;;;;;;;;;4831740;29;20505;-88
2023/01/26 06:56:30;;;;;;;40.55;5.78;;;;;;;;;;4831607;29;20046;-88
2023/01/26 06:58:56;;;;;;;25.27;5.22;;;;;;;;;;4816133;29;20055;-88
2023/01/26 07:01:24;;;;;;;21.38;4.90;;;;;;;;;;4816454;29;20052;-88
2023/01/26 07:03:54;;;;;;;45.22;6.55;;;;;;;;;;4831079;29;20098;-89
2023/01/26 07:06:20;;;;;;;83.20;12.98;;;;;;;;;;4831163;29;20060;-88
2023/01/26 07:08:47;;;;;;;71.93;9.60;;;;;;;;;;4831167;29;20045;-87
2023/01/26 07:11:13;;;;;;;46.60;6.93;;;;;;;;;;4846579;29;20445;-89
2023/01/26 07:13:39;;;;;;;29.73;6.18;;;;;;;;;;4831113;29;20090;-89
2023/01/26 07:16:07;;;;;;;30.95;5.53;;;;;;;;;;4816072;29;20045;-87
2023/01/26 07:18:33;;;;;;;28.85;6.40;;;;;;;;;;4830858;29;20085;-87
2023/01/26 07:21:03;;;;;;;28.80;4.93;;;;;;;;;;4846464;29;20042;-89
2023/01/26 07:23:29;;;;;;;36.80;7.28;;;;;;;;;;4830029;29;20495;-88
2023/01/26 07:25:56;;;;;;;45.65;6.93;;;;;;;;;;4845985;29;20052;-88
2023/01/26 07:28:22;;;;;;;28.30;5.28;;;;;;;;;;4830881;29;20117;-88
2023/01/26 07:30:48;;;;;;;51.05;6.85;;;;;;;;;;4815759;29;20081;-88
2023/01/26 07:33:15;;;;;;;36.03;9.38;;;;;;;;;;4830723;29;20392;-90
2023/01/26 07:35:41;;;;;;;58.40;20.92;;;;;;;;;;4815396;29;20041;-88
2023/01/26 07:38:07;;;;;;;42.22;12.35;;;;;;;;;;4845919;29;20049;-88
2023/01/26 07:40:33;;;;;;;22.58;6.88;;;;;;;;;;4815337;29;20546;-87
2023/01/26 07:43:00;;;;;;;28.63;6.40;;;;;;;;;;4845833;29;20511;-88
2023/01/26 07:45:26;;;;;;;33.03;6.95;;;;;;;;;;4830757;29;20408;-88
2023/01/26 07:47:56;;;;;;;28.52;7.78;;;;;;;;;;4815547;29;20404;-90
2023/01/26 07:50:24;;;;;;;25.63;5.97;;;;;;;;;;4830442;29;20488;-87
2023/01/26 07:52:53;;;;;;;37.22;7.45;;;;;;;;;;4830473;29;20045;-88
2023/01/26 07:55:20;;;;;;;58.97;10.75;;;;;;;;;;4845409;29;20049;-87
2023/01/26 07:57:49;;;;;;;42.83;8.60;;;;;;;;;;4827278;29;20062;-87
2023/01/26 08:00:16;;;;;;;37.35;5.88;;;;;;;;;;4797337;29;20473;-89
2023/01/26 08:02:42;;;;;;;31.42;5.88;;;;;;;;;;4812017;29;20077;-90
2023/01/26 08:05:08;;;;;;;26.95;6.65;;;;;;;;;;4811971;29;20056;-90
2023/01/26 08:07:35;;;;;;;22.55;5.60;;;;;;;;;;4797230;29;20049;-87
2023/01/26 08:10:01;;;;;;;27.67;6.38;;;;;;;;;;4827201;29;20046;-87
2023/01/26 08:12:27;;;;;;;25.30;6.00;;;;;;;;;;4827399;29;20105;-87
2023/01/26 08:14:53;;;;;;;22.05;5.55;;;;;;;;;;4812302;29;20081;-88
2023/01/26 08:17:19;;;;;;;18.85;4.20;;;;;;;;;;4812641;29;20053;-87
2023/01/26 08:19:46;;;;;;;25.10;4.97;;;;;;;;;;4811885;29;20053;-87
2023/01/26 08:22:12;;;;;;;33.35;5.93;;;;;;;;;;4811637;29;20046;-87
2023/01/26 08:24:38;;;;;;;53.50;6.47;;;;;;;;;;4812109;29;20046;-89
2023/01/26 08:27:04;;;;;;;30.70;5.25;;;;;;;;;;4811788;29;20496;-89
2023/01/26 08:29:30;;;;;;;28.25;5.70;;;;;;;;;;4797194;29;20049;-87
2023/01/26 08:31:56;;;;;;;21.40;4.22;;;;;;;;;;4797549;29;20046;-88
2023/01/26 08:34:22;;;;;;;24.98;4.88;;;;;;;;;;4796799;29;20049;-87
2023/01/26 08:36:48;;;;;;;26.02;4.78;;;;;;;;;;4796969;29;20062;-89
2023/01/26 08:39:14;;;;;;;29.52;6.28;;;;;;;;;;4811420;29;20407;-88
2023/01/26 08:41:40;;;;;;;17.65;4.75;;;;;;;;;;4811669;29;20050;-87
2023/01/26 08:44:06;;;;;;;23.50;4.97;;;;;;;;;;4811416;29;20050;-88
2023/01/26 08:46:33;;;;;;;21.38;5.38;;;;;;;;;;4811376;29;20106;-88
2023/01/26 08:48:59;;;;;;;30.13;5.43;;;;;;;;;;4826737;29;20046;-87
2023/01/26 08:51:25;;;;;;;33.80;5.25;;;;;;;;;;4811714;29;20073;-87
2023/01/26 08:53:53;;;;;;;17.00;5.28;;;;;;;;;;4827227;29;20106;-87
2023/01/26 08:56:19;;;;;;;25.55;5.10;;;;;;;;;;4796386;29;20046;-88
2023/01/26 08:58:45;;;;;;;34.35;4.85;;;;;;;;;;4813025;29;20076;-87
2023/01/26 09:01:12;;;;;;;31.17;4.90;;;;;;;;;;4830137;29;20084;-87
2023/01/26 09:03:38;;;;;;;19.73;6.55;;;;;;;;;;4844797;29;20057;-88
2023/01/26 09:06:05;;;;;;;20.30;4.97;;;;;;;;;;4829419;29;20443;-88
2023/01/26 09:08:31;;;;;;;27.30;6.35;;;;;;;;;;4814563;29;20056;-87
2023/01/26 09:10:57;;;;;;;29.73;5.45;;;;;;;;;;4829836;29;20049;-87
2023/01/26 09:13:23;;;;;;;20.75;6.22;;;;;;;;;;4829246;29;20136;-88
2023/01/26 09:15:50;;;;;;;25.00;5.72;;;;;;;;;;4829104;29;20052;-87
2023/01/26 09:18:16;;;;;;;31.48;6.90;;;;;;;;;;4829105;29;20045;-87
2023/01/26 09:20:43;;;;;;;41.83;7.13;;;;;;;;;;4829191;29;20085;-87
2023/01/26 09:23:11;;;;;;;25.05;5.80;;;;;;;;;;4814395;29;20050;-87
2023/01/26 09:25:37;;;;;;;15.10;4.13;;;;;;;;;;4814497;29;20049;-90
2023/01/26 09:28:03;;;;;;;22.25;5.63;;;;;;;;;;4829223;29;20050;-87
2023/01/26 09:30:29;;;;;;;29.17;5.38;;;;;;;;;;4829283;29;20461;-88
2023/01/26 09:32:59;;;;;;;30.65;5.70;;;;;;;;;;4829162;29;20199;-87
2023/01/26 09:35:26;;;;;;;31.58;5.90;;;;;;;;;;4829703;29;20407;-88
2023/01/26 09:37:52;;;;;;;18.40;5.70;;;;;;;;;;4830053;29;20474;-88
2023/01/26 09:40:36;;;;;;;27.95;4.82;;;;;;;;;;4829512;29;20088;-88
2023/01/26 09:43:21;;;;;;;34.63;5.90;;;;;;;;;;4829168;29;20097;-88
2023/01/26 09:45:50;;;;;;;29.65;5.65;;;;;;;;;;4844367;29;20049;-88
2023/01/26 09:48:30;;;;;;;27.55;5.45;;;;;;;;;;4831333;29;20053;-87
2023/01/26 09:51:06;;;;;;;27.15;6.03;;;;;;;;;;4847825;29;20522;-87
2023/01/26 09:53:41;;;;;;;20.27;5.15;;;;;;;;;;4847545;29;20054;-87
2023/01/26 09:56:11;;;;;;;26.63;5.50;;;;;;;;;;4832517;29;20132;-87
2023/01/26 09:58:39;;;;;;;22.83;4.90;;;5.70;99.90;;;;;;4847227;29;20526;-86
2023/01/26 10:01:20;;;;;;;30.30;5.65;;;5.80;99.90;;;;;;4832895;29;20056;-86
2023/01/26 10:03:49;;;;;;;30.55;5.53;;;;;;;;;;4847786;29;20058;-90
2023/01/26 10:06:20;;;;;;;23.50;4.40;;;;;;;;;;4832341;29;20132;-87
2023/01/26 10:08:47;;;;;;;28.75;5.97;;;;;;;;;;4832390;29;20045;-87
2023/01/26 10:11:23;;;;;;;24.13;5.15;;;;;;;;;;4832790;29;20106;-90
2023/01/26 10:13:59;;;;;;;27.85;5.63;;;;;;;;;;4832205;29;20049;-88
2023/01/26 10:16:25;;;;;;;19.90;4.40;;;;;;;;;;4847384;29;20057;-91
2023/01/26 10:18:53;;;;;;;27.25;5.10;;;;;;;;;;4832007;29;20499;-87
2023/01/26 10:21:24;;;;;;;25.20;4.78;;;6.20;99.90;;;;;;4832283;29;20101;-88
2023/01/26 10:23:51;;;;;;;26.33;4.10;;;;;;;;;;4831993;29;20049;-90
2023/01/26 10:26:22;;;;;;;21.02;4.22;;;;;;;;;;4847419;29;20042;-89
2023/01/26 10:28:49;;;;;;;16.20;4.07;;;;;;;;;;4832558;29;20451;-88
2023/01/26 10:31:25;;;;;;;23.63;4.55;;;6.20;99.90;;;;;;4831876;29;20088;-87
2023/01/26 10:33:56;;;;;;;18.70;4.22;;;;;;;;;;4831920;29;20046;-86
2023/01/26 10:36:22;;;;;;;25.40;4.03;;;;;;;;;;4831598;29;20050;-88
2023/01/26 10:38:49;;;;;;;17.52;3.60;;;;;;;;;;4831451;29;20049;-90
2023/01/26 10:41:18;;;;;;;25.27;4.90;;;;;;;;;;4832482;29;20104;-88
2023/01/26 10:44:01;;;;;;;17.88;5.22;;;;;;;;;;4846708;29;20052;-87
2023/01/26 10:46:32;;;;;;;21.20;4.07;;;;;;;;;;4831397;29;20496;-89
2023/01/26 10:49:00;;;;;;;14.35;3.25;;;;;;;;;;4846654;29;20088;-86
2023/01/26 10:51:33;;;;;;;14.38;3.47;;;;;;;;;;4831643;29;20389;-88
2023/01/26 10:54:23;;;;;;;11.00;3.92;;;;;;;;;;4831346;29;20526;-89
2023/01/26 10:56:59;;;;;;;12.80;3.88;;;;;;;;;;4834720;29;20050;-87
2023/01/26 10:59:32;;;;;;;32.88;3.97;;;;;;;;;;4831536;29;20049;-86
2023/01/26 11:02:16;;;;;;;23.13;3.85;;;6.70;99.90;;;;;;4833670;29;20137;-87
2023/01/26 11:05:01;;;;;;;14.17;5.10;;;;;;;;;;4848936;29;20451;-86
2023/01/26 11:07:38;;;;;;;26.60;4.22;;;6.80;99.90;;;;;;4846531;29;20096;-87
2023/01/26 11:10:32;;;;;;;18.35;4.03;;;6.80;99.90;;;;;;4846203;29;20056;-87
2023/01/26 11:13:19;;;;;;;26.30;4.07;;;6.90;99.90;;;;;;4843169;29;20053;-87
2023/01/26 11:15:49;;;;;;;12.82;2.45;;;;;;;;;;4831373;29;20085;-87
2023/01/26 11:18:34;;;;;;;15.35;3.55;;;;;;;;;;4846216;29;20490;-87
2023/01/26 11:21:08;;;;;;;;;;;7.00;99.90;;;;;;4846680;29;20061;-86
2023/01/26 11:23:40;;;;;;;13.15;3.38;;;;;;;;;;4830842;29;20437;-86
2023/01/26 11:26:09;;;;;;;16.55;3.63;;;;;;;;;;4845898;29;20522;-86
2023/01/26 11:28:35;;;;;;;16.02;3.63;;;;;;;;;;4830872;29;20551;-86
2023/01/26 11:31:16;;;;;;;16.10;3.45;;;;;;;;;;4830881;29;20050;-88
2023/01/26 11:33:55;;;;;;;14.75;3.35;;;;;;;;;;4845979;29;20053;-86
2023/01/26 11:36:39;;;;;;;24.17;5.20;;;;;;;;;;4830545;29;20132;-86
2023/01/26 11:39:11;;;;;;;18.85;4.00;;;;;;;;;;4830570;29;20414;-86
2023/01/26 11:41:40;;;;;;;19.27;3.63;;;;;;;;;;4830501;29;20049;-86
2023/01/26 11:44:14;;;;;;;16.83;3.90;;;;;;;;;;4830724;29;20081;-89
2023/01/26 11:46:46;;;;;;;18.23;4.50;;;;;;;;;;4830488;29;20084;-86
2023/01/26 11:49:19;;;;;;;15.23;3.25;;;;;;;;;;4830388;29;20098;-88
2023/01/26 11:52:15;;;;;;;10.55;3.20;;;;;;;;;;4830343;29;20056;-86
2023/01/26 11:55:24;;;;;;;6.38;2.38;;;7.40;99.90;;;;;;4766528;29;20530;-88
2023/01/26 11:58:09;;;;;;;13.77;3.25;;;;;;;;;;4845071;29;20061;-86
2023/01/26 12:00:35;;;;;;;14.45;2.83;;;;;;;;;;4830252;29;20096;-86
2023/01/26 12:03:03;;;;;;;15.45;5.50;;;7.50;99.90;;;;;;4830202;29;20590;-87
2023/01/26 12:05:33;;;;;;;16.90;2.55;;;;;;;;;;4830664;29;20146;-89
2023/01/26 12:08:03;;;;;;;14.20;2.40;;;;;;;;;;4845234;29;20507;-86
2023/01/26 12:10:44;;;;;;;14.50;3.08;;;7.40;99.90;;;;;;4844647;29;20141;-86
2023/01/26 12:13:15;;;;;;;14.80;3.55;;;;;;;;;;4830130;29;20531;-87
2023/01/26 12:15:49;;;;;;;54.08;5.28;;;7.50;99.90;;;;;;4845379;29;20475;-86
2023/01/26 12:18:20;;;;;;;10.65;2.97;;;;;;;;;;4830008;29;20441;-87
2023/01/26 12:20:59;;;;;;;15.43;2.47;;;7.40;99.90;;;;;;4829857;29;20056;-87
2023/01/26 12:23:46;;;;;;;12.13;3.53;;;7.60;99.90;;;;;;4830433;29;20457;-86
2023/01/26 12:26:14;;;;;;;14.20;2.63;;;;;;;;;;4845349;29;20539;-87
2023/01/26 12:28:52;;;;;;;15.68;2.35;;;;;;;;;;4845493;29;20046;-88
2023/01/26 12:31:18;;;;;;;11.55;3.20;;;;;;;;;;4845098;29;20506;-88
2023/01/26 12:33:45;;;;;;;11.50;3.00;;;7.50;99.90;;;;;;4845127;29;20053;-86
2023/01/26 12:36:27;;;;;;;8.50;2.60;;;;;;;;;;4829757;29;20053;-89
2023/01/26 12:38:53;;;;;;;12.07;2.60;;;;;;;;;;4829772;29;20096;-90
2023/01/26 12:41:34;;;;;;;20.63;2.38;;;;;;;;;;4845111;29;20041;-88
2023/01/26 12:44:18;;;;;;;8.18;2.28;;;;;;;;;;4844824;29;20090;-88
2023/01/26 12:46:46;;;;;;;;;;;7.50;99.90;;;;;;4830283;29;20049;-88
2023/01/26 12:49:25;;;;;;;15.95;3.47;;;7.40;99.90;;;;;;4844844;29;19926;-87
2023/01/26 12:52:18;;;;;;;18.92;3.58;;;7.70;99.90;;;;;;4844593;29;20136;-87
2023/01/26 12:54:58;;;;;;;18.75;3.88;;;7.60;99.90;;;;;;4817861;29;20054;-86
2023/01/26 12:57:26;;;;;;;5.93;2.25;;;;;;;;;;4829283;29;20061;-86
2023/01/26 12:59:52;;;;;;;10.48;2.83;;;;;;;;;;4829650;29;20411;-86
2023/01/26 13:02:29;;;;;;;6.95;2.88;;;;;;;;;;4829572;29;20045;-87
2023/01/26 13:04:57;;;;;;;27.25;3.72;;;;;;;;;;4829154;29;20506;-86
2023/01/26 13:07:38;;;;;;;26.52;3.90;;;7.50;99.90;;;;;;4829373;29;20074;-86
2023/01/26 13:10:22;;;;;;;12.00;2.40;;;7.50;99.90;;;;;;4829285;29;20132;-86
2023/01/26 13:13:19;;;;;;;7.57;2.10;;;7.50;99.90;;;;;;4829406;29;20058;-86
2023/01/26 13:15:45;;;;;;;6.88;2.00;;;;;;;;;;4844183;29;20495;-87
2023/01/26 13:18:16;;;;;;;6.65;1.98;;;;;;;;;;4829256;29;20145;-87
2023/01/26 13:20:42;;;;;;;18.55;3.25;;;;;;;;;;4844514;29;20474;-87
2023/01/26 13:23:35;;;;;;;11.13;2.50;;;7.50;99.90;;;;;;4831564;29;20105;-87
2023/01/26 13:26:10;;;;;;;10.88;2.53;;;;;;;;;;4848038;29;20057;-87
2023/01/26 13:28:36;;;;;;;12.65;3.03;;;;;;;;;;4832731;29;20049;-87
2023/01/26 13:31:04;;;;;;;9.63;3.00;;;7.50;99.90;;;;;;4817778;29;20057;-86
2023/01/26 13:33:31;;;;;;;13.68;2.70;;;;;;;;;;4847816;29;20060;-87
2023/01/26 13:36:01;;;;;;;8.70;2.65;;;7.50;99.90;;;;;;4817439;29;20056;-87
2023/01/26 13:38:53;;;;;;;10.65;3.03;;;;;;;;;;4847804;29;20063;-86
2023/01/26 13:41:21;;;;;;;15.05;2.67;;;;;;;;;;4798518;29;20094;-86
2023/01/26 13:43:58;;;;;;;15.98;3.58;;;7.60;99.90;;;;;;4832365;29;20136;-87
2023/01/26 13:46:30;;;;;;;5.60;2.17;;;;;;;;;;4832534;29;20448;-86
2023/01/26 13:48:56;;;;;;;15.73;2.65;;;;;;;;;;4832889;29;20049;-86
2023/01/26 13:51:27;;;;;;;12.43;2.95;;;7.40;99.90;;;;;;4832936;29;20456;-89
2023/01/26 13:54:00;;;;;;;8.20;2.30;;;;;;;;;;4847531;29;20167;-86
2023/01/26 13:56:30;;;;;;;10.77;2.70;;;;;;;;;;4847718;29;20045;-86
2023/01/26 13:59:12;;;;;;;10.95;3.25;;;7.30;99.90;;;;;;4830618;29;20058;-89
2023/01/26 14:01:56;;;;;;;9.95;2.90;;;7.50;99.90;;;;;;4829090;29;20050;-87
2023/01/26 14:04:24;;;;;;;14.00;2.95;;;;;;;;;;4799195;29;20407;-87
2023/01/26 14:06:53;;;;;;;9.82;2.53;;;;;;;;;;4828904;29;20045;-87
2023/01/26 14:09:19;;;;;;;15.05;3.17;;;;;;;;;;4813857;29;20085;-88
2023/01/26 14:11:57;;;;;;;11.93;3.17;;;7.40;99.90;;;;;;4799002;29;20050;-87
2023/01/26 14:14:25;;;;;;;15.35;3.05;;;;;;;;;;4814354;29;20064;-87
2023/01/26 14:16:51;;;;;;;6.22;3.33;;;;;;;;;;4814471;29;20054;-86
2023/01/26 14:19:19;;;;;;;12.63;2.83;;;;;;;;;;4828821;29;20077;-86
2023/01/26 14:21:56;;;;;;;34.83;5.10;;;7.20;99.90;;;;;;4813559;29;20492;-86
2023/01/26 14:24:25;;;;;;;18.92;3.85;;;;;;;;;;4814051;29;20058;-87
2023/01/26 14:26:53;;;;;;;13.38;3.40;;;;;;;;;;4813656;29;20057;-86
2023/01/26 14:29:21;;;;;;;13.75;3.25;;;;;;;;;;4813708;29;20057;-87
2023/01/26 14:31:48;;;;;;;11.15;3.10;;;;;;;;;;4813571;29;20046;-86
2023/01/26 14:34:18;;;;;;;14.02;2.92;;;;;;;;;;4813087;29;20060;-88
2023/01/26 14:36:47;;;;;;;18.15;4.32;;;;;;;;;;4814082;29;20042;-87
2023/01/26 14:39:18;;;;;;;19.63;4.10;;;7.20;99.90;;;;;;4828346;29;20107;-88
2023/01/26 14:41:46;;;;;;;19.35;3.72;;;7.40;99.90;;;;;;4813303;29;20053;-86
2023/01/26 14:44:12;;;;;;;13.48;3.60;;;;;;;;;;4828073;29;20057;-87
2023/01/26 14:46:53;;;;;;;13.65;2.45;;;;;;;;;;4813255;29;20052;-89
2023/01/26 14:49:25;;;;;;;7.90;3.92;;;;;;;;;;4813225;29;20057;-87
2023/01/26 14:51:55;;;;;;;11.27;3.50;;;;;;;;;;4813155;29;20046;-88
2023/01/26 14:54:32;;;;;;;12.75;2.95;;;;;;;;;;4828080;29;20053;-88
2023/01/26 14:56:59;;;;;;;20.52;3.30;;;7.20;99.90;;;;;;4828133;29;20050;-86
2023/01/26 14:59:35;;;;;;;14.77;2.92;;;7.10;99.90;;;;;;4826986;29;20049;-86
2023/01/26 15:02:22;;;;;;;13.48;2.88;;;7.10;99.90;;;;;;4831333;29;20041;-87
2023/01/26 15:04:58;;;;;;;11.93;2.72;;;;;;;;;;4831543;29;20419;-87
2023/01/26 15:07:27;;;;;;;17.58;3.95;;;;;;;;;;4831028;29;20088;-86
2023/01/26 15:09:54;;;;;;;14.57;3.33;;;;;;;;;;4831034;29;20088;-86
2023/01/26 15:12:20;;;;;;;17.15;4.50;;;;;;;;;;4832073;29;20059;-90